Time;durP1;ratioP1;P1;durP2;ratioP2;P2;SDS_P1;SDS_P2;PMS_P1;PMS_P2;Temp;Humidity;BMP_temperature;BMP_pressure;BME280_temperature;BME280_humidity;BME280_pressure;Samples;Min_cycle;Max_cycle;Signal;HPM_P1;HPM_P2
2022/12/05 00:00:00;;;;;;;;;;;20.50;63.60;;;;;;1567869;74;689;-70
2022/12/05 00:02:02;;;;;;;;;;;20.50;63.60;;;;;;1566418;74;1167;-70
2022/12/05 00:04:05;;;;;;;;;;;20.50;63.70;;;;;;1568895;74;781;-70
2022/12/05 00:06:07;;;;;;;;;;;20.50;63.70;;;;;;1571037;74;690;-72
2022/12/05 00:08:09;;;;;;;;;;;20.50;63.70;;;;;;1569433;74;692;-70
2022/12/05 00:10:11;;;;;;;;;;;20.60;63.60;;;;;;1569262;75;798;-70
2022/12/05 00:12:13;;;;;;;;;;;20.60;63.60;;;;;;1568829;74;1097;-69
2022/12/05 00:14:15;;;;;;;;;;;20.50;63.60;;;;;;1567727;75;1922;-69
2022/12/05 00:16:17;;;;;;;;;;;20.50;63.70;;;;;;1568893;74;686;-69
2022/12/05 00:18:19;;;;;;;;;;;20.60;63.60;;;;;;1567702;75;782;-69
2022/12/05 00:20:21;;;;;;;;;;;20.50;63.70;;;;;;1567564;74;785;-69
2022/12/05 00:22:23;;;;;;;;;;;20.60;63.70;;;;;;1570856;74;1148;-69
2022/12/05 00:24:25;;;;;;;;;;;20.60;63.70;;;;;;1568335;74;712;-69
2022/12/05 00:26:27;;;;;;;;;;;20.60;63.70;;;;;;1570105;74;612;-70
2022/12/05 00:28:28;;;;;;;;;;;20.50;63.80;;;;;;1568725;74;738;-71
2022/12/05 00:30:30;;;;;;;;;;;20.50;63.90;;;;;;1564733;74;644;-70
2022/12/05 00:32:32;;;;;;;;;;;20.50;63.90;;;;;;1569186;74;1120;-70
2022/12/05 00:34:34;;;;;;;;;;;20.50;63.90;;;;;;1568399;75;1942;-70
2022/12/05 00:36:36;;;;;;;;;;;20.50;63.90;;;;;;1569236;74;795;-70
2022/12/05 00:38:38;;;;;;;;;;;20.50;63.90;;;;;;1570120;75;711;-66
2022/12/05 00:40:40;;;;;;;;;;;20.40;63.90;;;;;;1571922;74;702;-66
2022/12/05 00:42:41;;;;;;;;;;;20.50;63.90;;;;;;1570879;74;1134;-69
2022/12/05 00:44:43;;;;;;;;;;;20.40;63.80;;;;;;1569353;74;643;-70
2022/12/05 00:46:45;;;;;;;;;;;20.50;63.80;;;;;;1569984;74;664;-68
2022/12/05 00:48:47;;;;;;;;;;;20.50;63.80;;;;;;1570613;74;1310;-68
2022/12/05 00:50:49;;;;;;;;;;;20.50;63.90;;;;;;1570653;74;704;-69
2022/12/05 00:52:51;;;;;;;;;;;20.50;63.90;;;;;;1564528;74;1127;-68
2022/12/05 00:54:53;;;;;;;;;;;20.50;63.90;;;;;;1564933;74;1926;-67
2022/12/05 00:56:55;;;;;;;;;;;20.50;63.90;;;;;;1569863;74;696;-68
2022/12/05 00:58:57;;;;;;;;;;;20.50;64.00;;;;;;1568363;74;773;-68
2022/12/05 01:01:00;;;;;;;;;;;20.40;63.90;;;;;;1569494;74;799;-68
2022/12/05 01:03:02;;;;;;;;;;;20.40;63.90;;;;;;1567788;74;1737;-68
2022/12/05 01:05:04;;;;;;;;;;;20.50;64.00;;;;;;1555907;74;832;-68
2022/12/05 01:07:06;;;;;;;;;;;20.50;64.00;;;;;;1568326;74;703;-68
2022/12/05 01:09:08;;;;;;;;;;;20.50;63.90;;;;;;1569920;74;712;-68
2022/12/05 01:11:10;;;;;;;;;;;20.50;63.90;;;;;;1567870;74;701;-69
2022/12/05 01:13:12;;;;;;;;;;;20.50;63.90;;;;;;1573240;74;1141;-68
2022/12/05 01:15:14;;;;;;;;;;;20.50;63.90;;;;;;1570222;74;1946;-69
2022/12/05 01:17:16;;;;;;;;;;;20.50;64.00;;;;;;1557846;74;676;-69
2022/12/05 01:19:19;;;;;;;;;;;20.40;63.90;;;;;;1567619;74;788;-70
2022/12/05 01:21:21;;;;;;;;;;;20.50;64.00;;;;;;1568198;74;1041;-69
2022/12/05 01:23:23;;;;;;;;;;;20.50;64.00;;;;;;1569500;74;1140;-69
2022/12/05 01:25:25;;;;;;;;;;;20.40;64.00;;;;;;1562493;74;774;-68
2022/12/05 01:27:27;;;;;;;;;;;20.50;64.10;;;;;;1580991;74;756;-69
2022/12/05 01:29:29;;;;;;;;;;;20.40;64.10;;;;;;1569583;73;792;-69
2022/12/05 01:31:32;;;;;;;;;;;20.40;64.10;;;;;;1568451;74;690;-69
2022/12/05 01:33:34;;;;;;;;;;;20.50;64.10;;;;;;1559599;74;1117;-68
2022/12/05 01:35:37;;;;;;;;;;;20.50;64.10;;;;;;1568780;74;1989;-69
2022/12/05 01:37:38;;;;;;;;;;;20.40;64.00;;;;;;1567760;74;597;-69
2022/12/05 01:39:40;;;;;;;;;;;20.40;64.00;;;;;;1573272;74;695;-69
2022/12/05 01:41:44;;;;;;;;;;;20.50;64.10;;;;;;1568311;74;1159;-69
2022/12/05 01:43:52;;;;;;;;;;;20.50;64.10;;;;;;1564487;74;1468;-69
2022/12/05 01:45:54;;;;;;;;;;;20.50;64.10;;;;;;1558966;74;716;-69
2022/12/05 01:47:56;;;;;;;;;;;20.50;64.10;;;;;;1558112;74;740;-69
2022/12/05 01:49:58;;;;;;;;;;;20.50;64.10;;;;;;1560953;74;717;-68
2022/12/05 01:52:01;;;;;;;;;;;20.50;64.10;;;;;;1566456;74;1165;-68
2022/12/05 01:54:03;;;;;;;;;;;20.50;64.20;;;;;;1566832;74;1927;-69
2022/12/05 01:56:05;;;;;;;;;;;20.50;64.20;;;;;;1569473;74;726;-69
2022/12/05 01:58:07;;;;;;;;;;;20.50;64.20;;;;;;1566622;74;803;-69
2022/12/05 02:00:10;;;;;;;;;;;20.40;64.10;;;;;;1559351;74;738;-68
2022/12/05 02:02:12;;;;;;;;;;;20.40;64.10;;;;;;1563456;74;1080;-69
2022/12/05 02:04:14;;;;;;;;;;;20.40;64.10;;;;;;1551707;71;3019;-78
2022/12/05 02:06:16;;;;;;;;;;;20.40;64.10;;;;;;1546433;75;760;-78
2022/12/05 02:08:18;;;;;;;;;;;20.50;64.10;;;;;;1552768;75;706;-78
2022/12/05 02:10:20;;;;;;;;;;;20.50;64.10;;;;;;1548419;75;727;-77
2022/12/05 02:12:21;;;;;;;;;;;20.50;64.10;;;;;;1552086;76;901;-76
2022/12/05 02:14:25;;;;;;;;;;;20.50;64.10;;;;;;1526702;75;1951;-77
2022/12/05 02:16:28;;;;;;;;;;;20.40;64.00;;;;;;1526904;76;1678;-78
2022/12/05 02:18:44;;;;;;;;;;;20.50;64.10;;;;;;1522513;76;987;-78
2022/12/05 02:21:04;;;;;;;;;;;20.50;64.10;;;;;;1525664;76;1156;-78
2022/12/05 02:23:24;;;;;;;;;;;20.50;64.10;;;;;;1520588;76;1181;-74
2022/12/05 02:25:30;;;;;;;;;;;20.40;63.90;;;;;;1510923;76;705;-78
2022/12/05 02:27:50;;;;;;;;;;;20.40;64.00;;;;;;1519340;76;726;-78
2022/12/05 02:29:56;;;;;;;;;;;20.50;64.00;;;;;;1510726;76;734;-77
2022/12/05 02:32:09;;;;;;;;;;;20.50;63.90;;;;;;1533544;76;588;-77
2022/12/05 02:34:12;;;;;;;;;;;20.40;63.80;;;;;;1520304;76;1958;-79
2022/12/05 02:36:34;;;;;;;;;;;20.50;63.90;;;;;;1514982;76;1135;-80
2022/12/05 02:38:36;;;;;;;;;;;20.50;63.90;;;;;;1525360;76;1111;-77
2022/12/05 02:40:42;;;;;;;;;;;20.40;63.80;;;;;;1526338;76;1580;-79
2022/12/05 02:42:55;;;;;;;;;;;20.40;63.80;;;;;;1511422;76;1125;-78
2022/12/05 02:44:57;;;;;;;;;;;20.50;63.90;;;;;;1526734;76;1892;-75
2022/12/05 02:46:59;;;;;;;;;;;20.50;63.90;;;;;;1524918;76;842;-78
2022/12/05 02:49:03;;;;;;;;;;;20.50;64.00;;;;;;1520977;76;721;-76
2022/12/05 02:51:05;;;;;;;;;;;20.40;64.00;;;;;;1525995;76;744;-78
2022/12/05 02:53:08;;;;;;;;;;;20.40;64.00;;;;;;1525695;76;1078;-77
2022/12/05 02:55:10;;;;;;;;;;;20.40;64.10;;;;;;1526382;76;1944;-78
2022/12/05 02:57:12;;;;;;;;;;;20.40;64.10;;;;;;1530077;77;687;-78
2022/12/05 02:59:14;;;;;;;;;;;20.40;64.10;;;;;;1527842;76;712;-78
2022/12/05 03:01:15;;;;;;;;;;;20.40;64.10;;;;;;1525490;76;786;-77
2022/12/05 03:03:18;;;;;;;;;;;20.40;64.20;;;;;;1523117;76;1149;-79
2022/12/05 03:05:24;;;;;;;;;;;20.40;64.20;;;;;;1528327;76;769;-79
2022/12/05 03:07:26;;;;;;;;;;;20.40;64.20;;;;;;1525096;76;1834;-80
2022/12/05 03:09:39;;;;;;;;;;;20.40;64.20;;;;;;1528007;76;794;-76
2022/12/05 03:11:41;;;;;;;;;;;20.40;64.10;;;;;;1518277;76;736;-80
2022/12/05 03:13:54;;;;;;;;;;;20.40;64.10;;;;;;1525576;76;1168;-79
2022/12/05 03:15:57;;;;;;;;;;;20.30;64.10;;;;;;1529258;76;1943;-79
2022/12/05 03:18:10;;;;;;;;;;;20.40;64.10;;;;;;1525370;76;685;-79
2022/12/05 03:20:13;;;;;;;;;;;20.40;64.10;;;;;;1528544;76;713;-80
2022/12/05 03:22:17;;;;;;;;;;;20.40;64.20;;;;;;1529893;78;764;-77
2022/12/05 03:24:19;;;;;;;;;;;20.40;64.10;;;;;;1524578;76;1153;-80
2022/12/05 03:26:22;;;;;;;;;;;20.40;64.10;;;;;;1522676;76;722;-79
2022/12/05 03:28:31;;;;;;;;;;;20.40;64.20;;;;;;1525703;76;1994;-77
2022/12/05 03:30:34;;;;;;;;;;;20.30;64.20;;;;;;1527332;76;1062;-79
2022/12/05 03:32:37;;;;;;;;;;;20.30;64.20;;;;;;1529499;76;722;-77
2022/12/05 03:34:40;;;;;;;;;;;20.40;64.10;;;;;;1529754;75;1946;-79
2022/12/05 03:36:43;;;;;;;;;;;20.40;64.10;;;;;;1528635;76;2172;-80
2022/12/05 03:38:47;;;;;;;;;;;20.40;64.10;;;;;;1520988;76;741;-80
2022/12/05 03:40:50;;;;;;;;;;;20.40;64.10;;;;;;1527989;76;727;-76
2022/12/05 03:42:54;;;;;;;;;;;20.40;64.10;;;;;;1522105;76;1168;-76
2022/12/05 03:45:10;;;;;;;;;;;20.40;64.10;;;;;;1514603;76;1019;-75
2022/12/05 03:47:16;;;;;;;;;;;20.40;64.10;;;;;;1525717;76;1861;-78
2022/12/05 03:49:22;;;;;;;;;;;20.40;64.00;;;;;;1523477;76;790;-77
2022/12/05 03:51:26;;;;;;;;;;;20.40;64.00;;;;;;1536377;76;726;-79
2022/12/05 03:53:28;;;;;;;;;;;20.40;64.00;;;;;;1525300;76;1162;-79
2022/12/05 03:55:31;;;;;;;;;;;20.40;64.10;;;;;;1528471;76;1920;-78
2022/12/05 03:57:34;;;;;;;;;;;20.30;64.10;;;;;;1528102;76;701;-79
2022/12/05 03:59:37;;;;;;;;;;;20.40;64.10;;;;;;1509027;76;765;-75
2022/12/05 04:01:39;;;;;;;;;;;20.30;64.20;;;;;;1531378;76;762;-79
2022/12/05 04:03:43;;;;;;;;;;;20.30;64.90;;;;;;1525096;76;1137;-77
2022/12/05 04:05:50;;;;;;;;;;;20.20;64.90;;;;;;1525967;76;791;-77
2022/12/05 04:07:53;;;;;;;;;;;20.20;64.90;;;;;;1530215;76;529;-77
2022/12/05 04:09:56;;;;;;;;;;;20.20;64.80;;;;;;1528735;76;737;-77
2022/12/05 04:11:59;;;;;;;;;;;20.30;64.80;;;;;;1525078;76;775;-77
2022/12/05 04:14:03;;;;;;;;;;;20.30;64.70;;;;;;1526645;76;1138;-76
2022/12/05 04:18:26;;;;;;;;;;;20.30;64.50;;;;;;1524260;76;726;-74
2022/12/05 04:22:58;;;;;;;;;;;20.30;64.40;;;;;;1524920;76;1615;-75
2022/12/05 04:27:22;;;;;;;;;;;20.30;64.30;;;;;;1529378;76;1671;-74
2022/12/05 04:29:25;;;;;;;;;;;20.30;64.20;;;;;;1531916;76;786;-75
2022/12/05 04:31:29;;;;;;;;;;;20.30;64.20;;;;;;1526658;76;1624;-75
2022/12/05 04:33:41;;;;;;;;;;;20.30;64.10;;;;;;1527216;76;1929;-75
2022/12/05 04:35:45;;;;;;;;;;;20.30;64.10;;;;;;1522316;76;1928;-75
2022/12/05 04:37:47;;;;;;;;;;;20.30;64.10;;;;;;1527711;76;760;-74
2022/12/05 04:40:00;;;;;;;;;;;20.30;64.00;;;;;;1525399;76;853;-75
2022/12/05 04:42:03;;;;;;;;;;;20.30;64.00;;;;;;1475560;79;1217;-75
2022/12/05 04:44:07;;;;;;;;;;;20.30;64.00;;;;;;1510617;76;1755;-75
2022/12/05 04:46:09;;;;;;;;;;;20.30;64.00;;;;;;1523089;76;808;-75
2022/12/05 04:48:12;;;;;;;;;;;20.30;64.00;;;;;;1523031;76;978;-74
2022/12/05 04:50:13;;;;;;;;;;;20.30;64.00;;;;;;1518213;76;734;-74
2022/12/05 04:52:15;;;;;;;;;;;20.30;64.00;;;;;;1524186;76;762;-76
2022/12/05 04:54:21;;;;;;;;;;;20.30;63.90;;;;;;1526119;76;1139;-73
2022/12/05 04:56:23;;;;;;;;;;;20.30;64.00;;;;;;1520400;76;1936;-75
2022/12/05 04:58:26;;;;;;;;;;;20.30;64.00;;;;;;1527336;76;795;-75
2022/12/05 05:00:28;;;;;;;;;;;20.30;64.00;;;;;;1520715;76;705;-76
2022/12/05 05:02:34;;;;;;;;;;;20.40;64.00;;;;;;1527778;76;884;-75
2022/12/05 05:04:38;;;;;;;;;;;20.30;64.00;;;;;;1524918;76;1075;-74
2022/12/05 05:06:40;;;;;;;;;;;20.30;64.00;;;;;;1529945;76;720;-77
2022/12/05 05:08:51;;;;;;;;;;;20.30;64.10;;;;;;1528753;76;780;-78
2022/12/05 05:11:11;;;;;;;;;;;20.30;64.20;;;;;;1527517;76;716;-76
2022/12/05 05:13:13;;;;;;;;;;;20.20;64.20;;;;;;1528275;76;1169;-74
2022/12/05 05:15:15;;;;;;;;;;;20.20;64.30;;;;;;1526949;76;1944;-72
2022/12/05 05:17:17;;;;;;;;;;;20.10;64.40;;;;;;1520779;76;725;-74
2022/12/05 05:19:19;;;;;;;;;;;20.20;64.50;;;;;;1519662;76;688;-74
2022/12/05 05:21:21;;;;;;;;;;;20.20;64.60;;;;;;1525186;78;808;-74
2022/12/05 05:23:23;;;;;;;;;;;20.20;64.70;;;;;;1529114;76;1220;-75
2022/12/05 05:25:25;;;;;;;;;;;20.10;64.60;;;;;;1529650;76;730;-74
2022/12/05 05:27:27;;;;;;;;;;;20.10;64.70;;;;;;1531531;76;743;-74
2022/12/05 05:29:29;;;;;;;;;;;20.20;64.70;;;;;;1529656;76;1526;-74
2022/12/05 05:31:31;;;;;;;;;;;20.20;64.70;;;;;;1526978;76;737;-77
2022/12/05 05:33:33;;;;;;;;;;;20.20;64.70;;;;;;1526400;76;1139;-73
2022/12/05 05:35:37;;;;;;;;;;;20.10;64.80;;;;;;1526900;76;1927;-73
2022/12/05 05:37:39;;;;;;;;;;;20.10;64.80;;;;;;1512930;76;715;-76
2022/12/05 05:39:41;;;;;;;;;;;20.10;64.80;;;;;;1533791;76;764;-76
2022/12/05 05:41:43;;;;;;;;;;;20.10;64.80;;;;;;1528726;76;738;-76
2022/12/05 05:43:45;;;;;;;;;;;20.10;64.90;;;;;;1529067;76;1146;-76
2022/12/05 05:45:47;;;;;;;;;;;20.10;64.90;;;;;;1527569;76;640;-76
2022/12/05 05:47:49;;;;;;;;;;;20.10;65.00;;;;;;1518355;76;687;-76
2022/12/05 05:49:51;;;;;;;;;;;20.10;65.00;;;;;;1528638;76;758;-75
2022/12/05 05:51:52;;;;;;;;;;;20.10;65.00;;;;;;1529801;76;752;-73
2022/12/05 05:53:55;;;;;;;;;;;20.10;65.10;;;;;;1524940;76;1131;-75
2022/12/05 05:55:56;;;;;;;;;;;20.10;65.10;;;;;;1526483;76;1931;-76
2022/12/05 05:57:58;;;;;;;;;;;20.10;65.20;;;;;;1527712;77;721;-76
2022/12/05 06:00:00;;;;;;;;;;;20.20;65.20;;;;;;1527235;76;578;-77
2022/12/05 06:02:02;;;;;;;;;;;20.20;65.20;;;;;;1529726;76;682;-78
2022/12/05 06:04:04;;;;;;;;;;;20.20;65.30;;;;;;1528656;76;1118;-73
2022/12/05 06:06:07;;;;;;;;;;;20.20;66.80;;;;;;1522506;76;769;-74
2022/12/05 06:08:09;;;;;;;;;;;20.10;67.50;;;;;;1525879;76;727;-74
2022/12/05 06:10:11;;;;;;;;;;;20.10;67.40;;;;;;1521873;76;760;-74
2022/12/05 06:12:12;;;;;;;;;;;20.10;67.10;;;;;;1525323;76;756;-73
2022/12/05 06:14:14;;;;;;;;;;;20.00;67.00;;;;;;1528951;76;1183;-75
2022/12/05 06:16:16;;;;;;;;;;;20.10;67.10;;;;;;1528282;76;1936;-75
2022/12/05 06:18:18;;;;;;;;;;;20.10;67.20;;;;;;1529160;76;822;-71
2022/12/05 06:20:20;;;;;;;;;;;20.10;67.20;;;;;;1529996;76;682;-74
2022/12/05 06:22:22;;;;;;;;;;;20.10;67.90;;;;;;1527232;76;713;-76
2022/12/05 06:24:24;;;;;;;;;;;20.10;68.30;;;;;;1525154;76;1134;-71
2022/12/05 06:26:26;;;;;;;;;;;20.10;68.30;;;;;;1510828;76;1317;-74
2022/12/05 06:28:28;;;;;;;;;;;20.10;68.60;;;;;;1527054;76;724;-73
2022/12/05 06:30:30;;;;;;;;;;;20.10;68.70;;;;;;1519344;76;743;-71
2022/12/05 06:32:31;;;;;;;;;;;20.10;68.60;;;;;;1529544;76;735;-72
2022/12/05 06:34:34;;;;;;;;;;;20.20;68.90;;;;;;1526640;76;1026;-73
2022/12/05 06:36:36;;;;;;;;;;;20.10;68.70;;;;;;1509414;76;1940;-74
2022/12/05 06:38:38;;;;;;;;;;;20.20;68.30;;;;;;1521738;76;706;-74
2022/12/05 06:40:43;;;;;;;;;;;20.20;68.10;;;;;;1508883;76;736;-72
2022/12/05 06:42:45;;;;;;;;;;;20.20;67.90;;;;;;1528586;76;1154;-74
2022/12/05 06:44:47;;;;;;;;;;;20.20;68.30;;;;;;1527120;76;715;-76
2022/12/05 06:46:49;;;;;;;;;;;20.20;68.00;;;;;;1527627;76;699;-73
2022/12/05 06:48:53;;;;;;;;;;;20.20;67.90;;;;;;1529287;76;729;-74
2022/12/05 06:50:55;;;;;;;;;;;20.20;67.60;;;;;;1508263;76;717;-74
2022/12/05 06:52:57;;;;;;;;;;;20.30;67.50;;;;;;1522815;76;1154;-75
2022/12/05 06:54:59;;;;;;;;;;;20.30;67.30;;;;;;1533005;76;753;-75
2022/12/05 06:57:01;;;;;;;;;;;20.30;66.80;;;;;;1516957;76;1936;-75
2022/12/05 06:59:03;;;;;;;;;;;20.30;66.30;;;;;;1526923;76;762;-75
2022/12/05 07:03:24;;;;;;;;;;;20.40;66.20;;;;;;1519968;76;1633;-74
2022/12/05 07:05:26;;;;;;;;;;;20.30;66.20;;;;;;1522364;76;702;-74
2022/12/05 07:07:28;;;;;;;;;;;20.30;66.10;;;;;;1526267;76;743;-75
2022/12/05 07:09:47;;;;;;;;;;;20.30;66.10;;;;;;1537319;76;654;-75
2022/12/05 07:11:49;;;;;;;;;;;20.30;66.20;;;;;;1521179;76;634;-74
2022/12/05 07:13:51;;;;;;;;;;;20.20;66.00;;;;;;1528299;76;1254;-76
2022/12/05 07:15:53;;;;;;;;;;;20.30;66.10;;;;;;1529059;76;1929;-72
2022/12/05 07:17:55;;;;;;;;;;;20.30;66.10;;;;;;1527955;76;698;-75
2022/12/05 07:19:57;;;;;;;;;;;20.20;66.00;;;;;;1526029;76;638;-75
2022/12/05 07:21:58;;;;;;;;;;;20.20;66.00;;;;;;1526114;77;1681;-74
2022/12/05 07:24:00;;;;;;;;;;;20.20;66.00;;;;;;1530713;76;1121;-73
2022/12/05 07:26:05;;;;;;;;;;;20.20;65.90;;;;;;1526866;76;747;-76
2022/12/05 07:28:07;;;;;;;;;;;20.20;65.90;;;;;;1525621;76;788;-76
2022/12/05 07:30:09;;;;;;;;;;;20.20;65.90;;;;;;1521222;76;780;-76
2022/12/05 07:32:11;;;;;;;;;;;20.20;66.00;;;;;;1527186;76;805;-76
2022/12/05 07:34:13;;;;;;;;;;;20.20;65.90;;;;;;1526532;76;1117;-75
2022/12/05 07:36:16;;;;;;;;;;;20.20;65.90;;;;;;1528545;76;1932;-75
2022/12/05 07:38:18;;;;;;;;;;;20.20;65.90;;;;;;1532832;76;721;-76
2022/12/05 07:40:20;;;;;;;;;;;20.20;65.90;;;;;;1525350;76;589;-76
2022/12/05 07:42:22;;;;;;;;;;;20.20;65.90;;;;;;1528239;76;810;-79
2022/12/05 07:44:24;;;;;;;;;;;20.20;65.90;;;;;;1523045;76;1117;-75
2022/12/05 07:46:26;;;;;;;;;;;20.20;65.80;;;;;;1519317;76;720;-72
2022/12/05 07:48:28;;;;;;;;;;;20.30;65.80;;;;;;1526434;76;708;-74
2022/12/05 07:50:30;;;;;;;;;;;20.20;65.70;;;;;;1527391;76;775;-73
2022/12/05 07:52:32;;;;;;;;;;;20.10;65.70;;;;;;1529060;76;884;-75
2022/12/05 07:54:34;;;;;;;;;;;20.10;65.80;;;;;;1524831;76;1136;-75
2022/12/05 07:56:36;;;;;;;;;;;20.10;65.80;;;;;;1529644;76;1924;-74
2022/12/05 07:58:38;;;;;;;;;;;20.10;65.80;;;;;;1527522;77;669;-73
2022/12/05 08:00:39;;;;;;;;;;;20.20;65.80;;;;;;1519878;76;755;-76
2022/12/05 08:02:41;;;;;;;;;;;20.10;65.80;;;;;;1526269;76;1160;-73
2022/12/05 08:04:43;;;;;;;;;;;20.10;65.80;;;;;;1595513;71;2121;-76
2022/12/05 08:06:45;;;;;;;;;;;20.10;65.90;;;;;;1602710;72;691;-73
2022/12/05 08:08:50;;;;;;;;;;;20.10;65.80;;;;;;1603298;72;726;-72
2022/12/05 08:10:52;;;;;;;;;;;20.10;65.80;;;;;;1604307;72;602;-73
2022/12/05 08:12:54;;;;;;;;;;;20.10;65.80;;;;;;1598870;72;793;-71
2022/12/05 08:14:56;;;;;;;;;;;20.10;65.80;;;;;;1605942;72;1172;-71
2022/12/05 08:16:57;;;;;;;;;;;20.10;65.80;;;;;;1596379;73;1937;-72
2022/12/05 08:19:00;;;;;;;;;;;20.10;65.80;;;;;;1603926;72;1593;-73
2022/12/05 08:21:03;;;;;;;;;;;20.00;65.70;;;;;;1605426;72;721;-72
2022/12/05 08:23:05;;;;;;;;;;;20.10;65.80;;;;;;1603157;74;672;-73
2022/12/05 08:25:07;;;;;;;;;;;20.00;65.70;;;;;;1605429;74;1541;-71
2022/12/05 08:27:08;;;;;;;;;;;20.00;65.70;;;;;;1607561;73;701;-73
2022/12/05 08:29:11;;;;;;;;;;;20.00;65.70;;;;;;1602446;74;716;-73
2022/12/05 08:31:14;;;;;;;;;;;20.00;65.70;;;;;;1604279;72;724;-73
2022/12/05 08:33:16;;;;;;;;;;;20.00;65.70;;;;;;1604888;72;1130;-71
2022/12/05 08:35:18;;;;;;;;;;;20.00;65.70;;;;;;1607670;72;797;-72
2022/12/05 08:37:19;;;;;;;;;;;20.00;65.70;;;;;;1605799;74;1944;-71
2022/12/05 08:39:21;;;;;;;;;;;20.00;65.70;;;;;;1607364;74;853;-73
2022/12/05 08:41:27;;;;;;;;;;;20.00;65.70;;;;;;1605001;72;608;-73
2022/12/05 08:43:27;;;;;;;;;;;20.00;65.70;;;;;;1603093;73;1606;-73
2022/12/05 08:45:29;;;;;;;;;;;20.00;65.70;;;;;;1599579;72;726;-72
2022/12/05 08:47:31;;;;;;;;;;;20.00;65.70;;;;;;1601187;74;764;-73
2022/12/05 08:49:33;;;;;;;;;;;20.00;65.70;;;;;;1605850;73;598;-71
2022/12/05 08:51:35;;;;;;;;;;;20.00;65.70;;;;;;1607366;74;709;-73
2022/12/05 08:53:37;;;;;;;;;;;20.00;65.70;;;;;;1606830;73;1154;-71
2022/12/05 08:55:38;;;;;;;;;;;20.00;65.80;;;;;;1605321;72;641;-72
2022/12/05 08:57:40;;;;;;;;;;;20.00;65.70;;;;;;1597940;73;1922;-73
2022/12/05 08:59:42;;;;;;;;;;;20.00;65.70;;;;;;1603943;74;731;-73
2022/12/05 09:01:44;;;;;;;;;;;20.00;65.70;;;;;;1606675;72;709;-73
2022/12/05 09:03:46;;;;;;;;;;;20.00;65.80;;;;;;1610007;72;1142;-72
2022/12/05 09:05:48;;;;;;;;;;;20.00;65.70;;;;;;1606306;74;697;-71
2022/12/05 09:07:50;;;;;;;;;;;20.00;65.70;;;;;;1602190;74;1130;-72
2022/12/05 09:09:52;;;;;;;;;;;20.00;65.70;;;;;;1606042;74;709;-73
2022/12/05 09:11:53;;;;;;;;;;;20.00;65.70;;;;;;1606508;74;792;-72
2022/12/05 09:13:56;;;;;;;;;;;20.00;65.70;;;;;;1602207;73;1474;-74
2022/12/05 09:15:58;;;;;;;;;;;20.00;65.70;;;;;;1607319;72;735;-74
2022/12/05 09:18:00;;;;;;;;;;;20.00;65.70;;;;;;1609173;72;1920;-73
2022/12/05 09:20:02;;;;;;;;;;;20.00;65.80;;;;;;1606782;72;795;-71
2022/12/05 09:22:04;;;;;;;;;;;20.00;65.70;;;;;;1607526;74;700;-72
2022/12/05 09:24:06;;;;;;;;;;;20.00;65.70;;;;;;1604448;72;1105;-72
2022/12/05 09:26:10;;;;;;;;;;;20.00;65.70;;;;;;1607199;72;704;-72
2022/12/05 09:28:12;;;;;;;;;;;20.00;65.70;;;;;;1597935;72;696;-71
2022/12/05 09:30:14;;;;;;;;;;;20.00;65.70;;;;;;1605528;72;732;-72
2022/12/05 09:32:16;;;;;;;;;;;20.00;65.70;;;;;;1610298;72;782;-70
2022/12/05 09:34:19;;;;;;;;;;;20.00;65.70;;;;;;1606632;73;1166;-70
2022/12/05 09:36:22;;;;;;;;;;;20.00;65.70;;;;;;1606246;72;611;-72
2022/12/05 09:38:24;;;;;;;;;;;20.00;65.70;;;;;;1600469;72;1890;-72
2022/12/05 09:40:25;;;;;;;;;;;20.00;65.80;;;;;;1604645;74;730;-73
2022/12/05 09:42:32;;;;;;;;;;;20.00;65.70;;;;;;1605222;74;721;-74
2022/12/05 09:44:50;;;;;;;;;;;20.00;65.80;;;;;;1604444;72;1446;-73
2022/12/05 09:47:02;;;;;;;;;;;20.00;65.70;;;;;;1606790;72;745;-74
2022/12/05 09:49:04;;;;;;;;;;;20.00;65.70;;;;;;1612129;72;698;-73
2022/12/05 09:51:07;;;;;;;;;;;19.90;65.70;;;;;;1605090;72;709;-71
2022/12/05 09:53:10;;;;;;;;;;;20.00;65.70;;;;;;1596792;72;1180;-73
2022/12/05 09:55:13;;;;;;;;;;;20.00;65.70;;;;;;1601824;74;751;-72
2022/12/05 09:57:15;;;;;;;;;;;20.00;65.70;;;;;;1596242;72;1937;-72
2022/12/05 09:59:19;;;;;;;;;;;20.00;65.70;;;;;;1604410;72;729;-73
2022/12/05 10:01:39;;;;;;;;;;;19.90;65.70;;;;;;1574384;74;717;-72
2022/12/05 10:03:42;;;;;;;;;;;20.00;65.70;;;;;;1609347;72;1153;-71
2022/12/05 10:05:45;;;;;;;;;;;19.90;65.70;;;;;;1599428;73;768;-72
2022/12/05 10:07:55;;;;;;;;;;;20.00;65.60;;;;;;1605897;72;1036;-69
2022/12/05 10:10:13;;;;;;;;;;;19.90;65.70;;;;;;1591636;74;1459;-72
2022/12/05 10:12:26;;;;;;;;;;;20.00;65.00;;;;;;1599413;72;761;-71
2022/12/05 10:14:32;;;;;;;;;;;20.00;64.10;;;;;;1601566;72;1186;-73
2022/12/05 10:16:36;;;;;;;;;;;20.00;63.90;;;;;;1607552;72;1879;-74
2022/12/05 10:18:42;;;;;;;;;;;20.00;64.00;;;;;;1603931;74;1944;-72
2022/12/05 10:20:52;;;;;;;;;;;20.00;64.20;;;;;;1606781;72;723;-75
2022/12/05 10:22:55;;;;;;;;;;;20.00;64.30;;;;;;1606084;72;1429;-72
2022/12/05 10:25:01;;;;;;;;;;;20.00;64.30;;;;;;1603691;72;1172;-74
2022/12/05 10:27:04;;;;;;;;;;;19.90;64.20;;;;;;1598515;74;745;-71
2022/12/05 10:29:10;;;;;;;;;;;19.90;64.20;;;;;;1604308;74;710;-72
2022/12/05 10:31:13;;;;;;;;;;;20.00;64.20;;;;;;1606783;72;906;-73
2022/12/05 10:33:16;;;;;;;;;;;19.90;64.30;;;;;;1605193;72;1212;-72
2022/12/05 10:35:19;;;;;;;;;;;19.90;64.40;;;;;;1605627;72;694;-73
2022/12/05 10:37:21;;;;;;;;;;;19.90;64.50;;;;;;1605853;72;1934;-72
2022/12/05 10:39:23;;;;;;;;;;;19.90;64.50;;;;;;1607154;74;675;-72
2022/12/05 10:41:25;;;;;;;;;;;19.90;64.60;;;;;;1605786;73;651;-72
2022/12/05 10:43:28;;;;;;;;;;;19.80;64.60;;;;;;1602153;72;1142;-72
2022/12/05 10:45:30;;;;;;;;;;;19.80;64.60;;;;;;1611294;72;619;-71
2022/12/05 10:47:32;;;;;;;;;;;19.90;64.70;;;;;;1608367;72;731;-71
2022/12/05 10:49:33;;;;;;;;;;;19.90;64.70;;;;;;1603247;72;724;-72
2022/12/05 10:51:35;;;;;;;;;;;19.80;64.70;;;;;;1599343;72;655;-72
2022/12/05 10:53:41;;;;;;;;;;;19.80;64.80;;;;;;1607264;72;1091;-74
2022/12/05 10:55:43;;;;;;;;;;;19.80;64.80;;;;;;1598430;72;734;-72
2022/12/05 10:57:52;;;;;;;;;;;19.90;64.80;;;;;;1607869;72;1925;-71
2022/12/05 10:59:55;;;;;;;;;;;19.90;64.90;;;;;;1595126;72;713;-72
2022/12/05 11:01:57;;;;;;;;;;;19.80;64.80;;;;;;1602840;72;789;-72
2022/12/05 11:04:19;;;;;;;;;;;19.80;64.80;;;;;;1606419;73;1134;-71
2022/12/05 11:06:22;;;;;;;;;;;19.80;64.90;;;;;;1592416;73;1396;-73
2022/12/05 11:08:25;;;;;;;;;;;19.90;65.00;;;;;;1596834;72;1052;-71
2022/12/05 11:10:34;;;;;;;;;;;19.90;65.00;;;;;;1603401;72;719;-71
2022/12/05 11:12:36;;;;;;;;;;;19.80;64.90;;;;;;1595590;72;721;-71
2022/12/05 11:14:38;;;;;;;;;;;19.80;65.00;;;;;;1603257;72;1135;-70
2022/12/05 11:16:40;;;;;;;;;;;19.80;65.00;;;;;;1609069;72;700;-72
2022/12/05 11:18:47;;;;;;;;;;;19.90;65.10;;;;;;1593314;74;1935;-72
2022/12/05 11:20:45;;;;;;;;;;;19.90;65.10;;;;;;1603374;74;1159;-74
2022/12/05 11:22:49;;;;;;;;;;;19.90;65.10;;;;;;1606260;72;735;-70
2022/12/05 11:24:51;;;;;;;;;;;19.80;65.00;;;;;;1599255;72;1161;-72
2022/12/05 11:26:52;;;;;;;;;;;19.90;65.10;;;;;;1591055;72;595;-73
2022/12/05 11:28:54;;;;;;;;;;;19.90;65.10;;;;;;1603268;72;582;-73
2022/12/05 11:31:01;;;;;;;;;;;19.90;65.20;;;;;;1611443;72;741;-72
2022/12/05 11:33:13;;;;;;;;;;;19.90;65.20;;;;;;1602026;73;609;-74
2022/12/05 11:35:17;;;;;;;;;;;19.90;65.10;;;;;;1604570;72;1178;-72
2022/12/05 11:37:23;;;;;;;;;;;19.80;65.10;;;;;;1605273;73;1922;-72
2022/12/05 11:39:25;;;;;;;;;;;19.90;65.20;;;;;;1602631;73;659;-74
2022/12/05 11:41:28;;;;;;;;;;;19.90;65.20;;;;;;1606979;73;805;-72
2022/12/05 11:43:38;;;;;;;;;;;19.90;65.20;;;;;;1605311;72;1134;-72
2022/12/05 11:45:41;;;;;;;;;;;19.90;65.20;;;;;;1611099;72;701;-73
2022/12/05 11:47:45;;;;;;;;;;;19.80;65.20;;;;;;1600412;72;904;-72
2022/12/05 11:50:04;;;;;;;;;;;19.80;65.20;;;;;;1574661;73;1038;-72
2022/12/05 11:52:24;;;;;;;;;;;19.80;65.20;;;;;;1605570;72;709;-71
2022/12/05 11:54:27;;;;;;;;;;;19.90;65.20;;;;;;1607175;72;1082;-71
2022/12/05 11:56:33;;;;;;;;;;;19.80;65.10;;;;;;1605574;73;710;-72
2022/12/05 11:58:43;;;;;;;;;;;19.80;65.20;;;;;;1604480;73;1934;-74
2022/12/05 12:00:46;;;;;;;;;;;19.90;65.20;;;;;;1612684;72;632;-74
2022/12/05 12:02:50;;;;;;;;;;;19.80;65.20;;;;;;1606489;72;1511;-72
2022/12/05 12:04:53;;;;;;;;;;;19.80;65.20;;;;;;1606779;72;1138;-72
2022/12/05 12:07:08;;;;;;;;;;;19.90;65.30;;;;;;1593621;72;673;-71
2022/12/05 12:09:27;;;;;;;;;;;19.90;65.20;;;;;;1591995;72;1100;-70
2022/12/05 12:11:43;;;;;;;;;;;19.80;65.20;;;;;;1606577;72;708;-72
2022/12/05 12:13:55;;;;;;;;;;;19.90;65.20;;;;;;1605795;73;1169;-72
2022/12/05 12:16:17;;;;;;;;;;;19.90;65.20;;;;;;1598697;72;1636;-71
2022/12/05 12:18:39;;;;;;;;;;;19.80;65.20;;;;;;1600056;72;1926;-73
2022/12/05 12:20:42;;;;;;;;;;;19.90;65.20;;;;;;1608116;73;693;-72
2022/12/05 12:22:55;;;;;;;;;;;19.80;65.10;;;;;;1604048;74;1173;-72
2022/12/05 12:24:58;;;;;;;;;;;19.80;65.20;;;;;;1607256;72;1249;-71
2022/12/05 12:27:19;;;;;;;;;;;19.80;65.10;;;;;;1600658;73;1015;-72